Time;durP1;ratioP1;P1;durP2;ratioP2;P2;SDS_P1;SDS_P2;PMS_P1;PMS_P2;Temp;Humidity;BMP_temperature;BMP_pressure;BME280_temperature;BME280_humidity;BME280_pressure;Samples;Min_cycle;Max_cycle;Signal;HPM_P1;HPM_P2
2022/03/18 00:00:34;;;;;;;24.50;12.53;;;;;;;;;;5042770;28;20295;-67
2022/03/18 00:03:02;;;;;;;19.13;11.77;;;;;;;;;;5051060;28;20215;-67
2022/03/18 00:05:32;;;;;;;19.03;10.60;;;;;;;;;;5039265;28;20259;-67
2022/03/18 00:08:00;;;;;;;22.47;11.77;;;;;;;;;;5026286;28;20253;-67
2022/03/18 00:10:29;;;;;;;18.07;10.53;;;;;;;;;;5039049;28;20245;-67
2022/03/18 00:12:58;;;;;;;20.63;11.77;;;;;;;;;;5039084;28;20231;-67
2022/03/18 00:15:27;;;;;;;19.83;11.03;;;;;;;;;;5038132;28;20318;-67
2022/03/18 00:17:55;;;;;;;18.87;10.63;;;;;;;;;;5037370;28;20204;-67
2022/03/18 00:20:24;;;;;;;22.57;12.40;;;;;;;;;;5038848;28;20222;-67
2022/03/18 00:22:52;;;;;;;23.27;12.57;;;;;;;;;;5048342;28;20584;-66
2022/03/18 00:25:20;;;;;;;20.60;10.63;;;;;;;;;;5041795;28;20255;-67
2022/03/18 00:27:49;;;;;;;20.50;11.77;;;;;;;;;;5043785;28;20222;-66
2022/03/18 00:30:18;;;;;;;20.70;11.93;;;;;;;;;;5045631;28;20709;-67
2022/03/18 00:32:48;;;;;;;18.40;11.47;;;;;;;;;;5050293;28;20282;-66
2022/03/18 00:35:35;;;;;;;21.37;11.83;;;;;;;;;;5038589;28;20234;-67
2022/03/18 00:38:03;;;;;;;17.57;11.17;;;;;;;;;;5038310;28;20623;-67
2022/03/18 00:40:32;;;;;;;22.10;10.97;;;;;;;;;;5038600;28;20290;-67
2022/03/18 00:43:00;;;;;;;18.33;11.63;;;;;;;;;;5038750;28;20207;-67
2022/03/18 00:45:30;;;;;;;22.13;11.97;;;;;;;;;;5038354;28;20250;-67
2022/03/18 00:53:34;;;;;;;19.23;11.70;;;;;;;;;;4991309;28;20205;-67
2022/03/18 00:56:02;;;;;;;19.97;11.70;;;;;;;;;;5038247;28;20267;-67
2022/03/18 00:58:30;;;;;;;17.60;11.67;;;;;;;;;;5047361;28;20644;-67
2022/03/18 01:01:00;;;;;;;17.60;11.70;;;;;;;;;;5043251;28;20246;-67
2022/03/18 01:03:28;;;;;;;23.60;13.03;;;;;;;;;;5048199;28;20202;-67
2022/03/18 01:05:56;;;;;;;22.17;11.57;;;;;;;;;;5040559;28;20223;-67
2022/03/18 01:08:24;;;;;;;19.83;11.83;;;;;;;;;;5037970;28;20614;-67
2022/03/18 01:10:53;;;;;;;22.90;12.63;;;;;;;;;;5037733;28;20295;-67
2022/03/18 01:13:22;;;;;;;21.77;12.27;;;;;;;;;;5037854;28;20671;-67
2022/03/18 01:15:50;;;;;;;21.23;12.27;;;;;;;;;;5036214;28;20762;-66
2022/03/18 01:18:19;;;;;;;21.67;12.40;;;;;;;;;;5037531;28;20215;-66
2022/03/18 01:20:47;;;;;;;21.53;12.60;;;;;;;;;;5037523;28;20705;-67
2022/03/18 01:23:15;;;;;;;20.33;12.10;;;;;;;;;;5048823;28;20226;-66
2022/03/18 01:25:43;;;;;;;24.43;13.07;;;;;;;;;;5037807;28;20227;-67
2022/03/18 01:28:11;;;;;;;18.60;11.80;;;;;;;;;;5049164;28;20207;-67
2022/03/18 01:30:39;;;;;;;22.53;12.73;;;;;;;;;;5038611;28;20286;-67
2022/03/18 01:33:08;;;;;;;22.63;12.43;;;;;;;;;;5050108;28;20605;-67
2022/03/18 01:35:38;;;;;;;22.30;12.53;;;;;;;;;;5049589;28;20257;-67
2022/03/18 01:38:06;;;;;;;23.53;12.33;;;;;;;;;;5037689;28;20238;-67
2022/03/18 01:40:34;;;;;;;22.30;13.27;;;;;;;;;;5049267;28;20294;-66
2022/03/18 01:43:02;;;;;;;24.03;12.10;;;;;;;;;;5037431;28;20273;-67
2022/03/18 01:45:30;;;;;;;20.23;12.23;;;;;;;;;;5037210;28;20310;-67
2022/03/18 01:47:58;;;;;;;21.80;12.23;;;;;;;;;;5042744;28;20254;-67
2022/03/18 01:50:26;;;;;;;19.90;11.93;;;;;;;;;;5040093;28;20238;-66
2022/03/18 01:52:55;;;;;;;24.53;12.63;;;;;;;;;;5049229;28;20226;-66
2022/03/18 01:55:24;;;;;;;25.30;13.43;;;;;;;;;;5037001;28;20778;-67
2022/03/18 01:57:52;;;;;;;22.77;12.67;;;;;;;;;;5045233;28;20273;-66
2022/03/18 02:00:21;;;;;;;24.17;12.87;;;;;;;;;;5052784;28;20306;-67
2022/03/18 02:02:49;;;;;;;18.80;12.57;;;;;;;;;;5048921;28;20683;-67
2022/03/18 02:05:18;;;;;;;21.13;12.30;;;;;;;;;;5038454;28;20250;-67
2022/03/18 02:07:46;;;;;;;18.43;12.47;;;;;;;;;;5040950;28;20627;-67
2022/03/18 02:10:16;;;;;;;21.07;11.97;;;;;;;;;;5036911;28;20286;-67
2022/03/18 02:12:44;;;;;;;21.80;12.80;;;;;;;;;;5036421;28;20286;-67
2022/03/18 02:15:18;;;;;;;23.10;12.77;;;;;;;;;;5036723;28;20262;-67
2022/03/18 02:17:46;;;;;;;22.33;12.03;;;;;;;;;;5037003;28;20259;-67
2022/03/18 02:20:14;;;;;;;21.53;12.93;;;;;;;;;;5036732;28;20238;-67
2022/03/18 02:22:44;;;;;;;25.07;13.80;;;;;;;;;;5040215;28;20635;-67
2022/03/18 02:25:12;;;;;;;20.40;12.80;;;;;;;;;;5040982;28;20291;-67
2022/03/18 02:27:41;;;;;;;21.40;12.47;;;;;;;;;;5046782;28;20543;-67
2022/03/18 02:30:09;;;;;;;21.13;13.37;;;;;;;;;;5040746;28;20235;-67
2022/03/18 02:32:37;;;;;;;22.60;12.23;;;;;;;;;;5046820;28;20231;-67
2022/03/18 02:35:06;;;;;;;19.70;11.80;;;;;;;;;;5040560;28;20286;-67
2022/03/18 02:37:34;;;;;;;23.60;12.90;;;;;;;;;;5050328;28;20310;-67
2022/03/18 02:40:03;;;;;;;18.10;11.07;;;;;;;;;;5040847;28;20212;-67
2022/03/18 02:42:31;;;;;;;22.60;12.33;;;;;;;;;;5040800;28;20275;-67
2022/03/18 02:45:00;;;;;;;22.20;13.10;;;;;;;;;;5046133;28;20235;-67
2022/03/18 02:47:28;;;;;;;24.77;13.07;;;;;;;;;;5045976;28;20640;-67
2022/03/18 02:49:56;;;;;;;21.87;12.93;;;;;;;;;;5040555;28;20235;-67
2022/03/18 02:52:24;;;;;;;18.50;11.93;;;;;;;;;;5048029;28;20235;-66
2022/03/18 02:54:52;;;;;;;21.67;13.33;;;;;;;;;;5043784;28;20235;-67
2022/03/18 02:57:22;;;;;;;22.20;13.00;;;;;;;;;;5040027;28;20314;-66
2022/03/18 02:59:50;;;;;;;21.60;11.50;;;;;;;;;;5042617;28;20837;-67
2022/03/18 03:02:18;;;;;;;20.37;12.80;;;;;;;;;;5047594;28;20289;-67
2022/03/18 03:10:17;;;;;;;20.77;12.77;;;;;;;;;;5047217;28;20242;-67
2022/03/18 03:12:46;;;;;;;18.47;11.57;;;;;;;;;;5040162;28;20265;-67
2022/03/18 03:15:14;;;;;;;22.67;13.03;;;;;;;;;;5039876;28;20685;-67
2022/03/18 03:17:42;;;;;;;20.03;13.70;;;;;;;;;;5039621;28;20270;-67
2022/03/18 03:20:11;;;;;;;20.50;12.20;;;;;;;;;;5039879;28;20757;-67
2022/03/18 03:22:39;;;;;;;20.00;11.83;;;;;;;;;;5047946;28;20242;-66
2022/03/18 03:25:08;;;;;;;23.37;13.63;;;;;;;;;;5043350;28;20318;-67
2022/03/18 03:27:36;;;;;;;23.40;13.43;;;;;;;;;;5040269;28;20235;-68
2022/03/18 03:30:06;;;;;;;20.97;12.60;;;;;;;;;;5047585;28;20294;-67
2022/03/18 03:32:34;;;;;;;21.93;12.57;;;;;;;;;;5044975;28;20234;-67
2022/03/18 03:35:02;;;;;;;19.60;11.60;;;;;;;;;;5039678;28;20208;-67
2022/03/18 03:37:30;;;;;;;26.40;13.80;;;;;;;;;;5039780;28;20287;-67
2022/03/18 03:39:58;;;;;;;20.70;13.20;;;;;;;;;;5046802;28;20289;-67
2022/03/18 03:42:26;;;;;;;19.13;11.90;;;;;;;;;;5039354;28;20623;-67
2022/03/18 03:44:54;;;;;;;22.23;12.67;;;;;;;;;;5039291;28;20652;-67
2022/03/18 03:47:23;;;;;;;23.03;13.67;;;;;;;;;;5039231;28;20267;-67
2022/03/18 03:49:51;;;;;;;22.97;13.07;;;;;;;;;;5039266;28;20651;-67
2022/03/18 03:52:19;;;;;;;22.37;13.87;;;;;;;;;;5037853;28;20747;-67
2022/03/18 03:54:47;;;;;;;23.23;13.57;;;;;;;;;;5048314;28;20273;-67
2022/03/18 03:57:15;;;;;;;22.73;13.37;;;;;;;;;;5038504;28;20266;-67
2022/03/18 03:59:43;;;;;;;27.73;14.50;;;;;;;;;;5026277;28;20246;-67
2022/03/18 04:02:12;;;;;;;20.80;13.43;;;;;;;;;;5042620;28;20305;-67
2022/03/18 04:04:41;;;;;;;23.57;13.80;;;;;;;;;;5045032;28;20211;-67
2022/03/18 04:07:09;;;;;;;29.13;14.30;;;;;;;;;;5036882;28;20314;-67
2022/03/18 04:09:37;;;;;;;25.97;14.20;;;;;;;;;;5050960;28;20326;-67
2022/03/18 04:12:06;;;;;;;26.77;13.10;;;;;;;;;;5049635;28;20246;-67
2022/03/18 04:14:34;;;;;;;28.43;14.17;;;;;;;;;;5036197;28;20592;-67
2022/03/18 04:17:02;;;;;;;23.87;14.77;;;;;;;;;;5037817;28;20305;-67
2022/03/18 04:19:31;;;;;;;25.90;13.87;;;;;;;;;;5035514;28;20238;-67
2022/03/18 04:22:00;;;;;;;27.17;14.57;;;;;;;;;;5038145;28;20210;-67
2022/03/18 04:24:28;;;;;;;26.73;15.00;;;;;;;;;;5036891;28;20286;-67
2022/03/18 04:26:56;;;;;;;23.57;14.07;;;;;;;;;;5030622;28;20315;-67
2022/03/18 04:29:24;;;;;;;24.53;14.53;;;;;;;;;;5039300;28;20310;-67
2022/03/18 04:31:52;;;;;;;24.17;15.03;;;;;;;;;;5035675;28;20199;-67
2022/03/18 04:34:20;;;;;;;21.97;14.13;;;;;;;;;;5036997;28;20211;-67
2022/03/18 04:36:48;;;;;;;29.80;15.00;;;;;;;;;;5037468;28;20262;-67
2022/03/18 04:39:18;;;;;;;26.87;14.73;;;;;;;;;;5037207;28;20247;-66
2022/03/18 04:41:46;;;;;;;26.37;14.80;;;;;;;;;;5036874;28;20287;-66
2022/03/18 04:44:15;;;;;;;25.27;14.53;;;;;;;;;;5037393;28;20210;-67
2022/03/18 04:46:43;;;;;;;23.20;13.77;;;;;;;;;;5036120;28;20263;-67
2022/03/18 04:49:11;;;;;;;26.10;14.13;;;;;;;;;;5040719;28;20609;-67
2022/03/18 04:51:40;;;;;;;23.07;13.50;;;;;;;;;;5034830;28;20199;-67
2022/03/18 04:54:08;;;;;;;21.40;13.00;;;;;;;;;;5037055;28;20286;-67
2022/03/18 04:59:26;;;;;;;23.80;14.00;;;;;;;;;;5017351;28;20314;-67
2022/03/18 05:01:54;;;;;;;25.50;14.90;;;;;;;;;;5038760;28;20568;-67
2022/03/18 05:04:22;;;;;;;22.17;13.77;;;;;;;;;;5037490;28;20231;-67
2022/03/18 05:06:51;;;;;;;22.73;13.43;;;;;;;;;;5038071;28;20216;-67
2022/03/18 05:09:19;;;;;;;23.77;13.93;;;;;;;;;;5032433;28;20287;-67
2022/03/18 05:11:49;;;;;;;26.77;13.80;;;;;;;;;;5036042;28;20204;-67
2022/03/18 05:14:17;;;;;;;24.33;14.17;;;;;;;;;;5036383;28;20203;-67
2022/03/18 05:16:45;;;;;;;23.90;12.40;;;;;;;;;;5036382;28;20318;-67
2022/03/18 05:19:13;;;;;;;22.43;13.47;;;;;;;;;;5036210;28;20258;-67
2022/03/18 05:21:41;;;;;;;22.87;13.40;;;;;;;;;;5035447;28;20238;-67
2022/03/18 05:24:09;;;;;;;23.87;14.37;;;;;;;;;;5034684;28;20702;-67
2022/03/18 05:26:37;;;;;;;24.60;13.80;;;;;;;;;;5044650;28;20310;-67
2022/03/18 05:29:07;;;;;;;26.93;13.80;;;;;;;;;;5039699;28;20283;-67
2022/03/18 05:31:35;;;;;;;22.97;13.47;;;;;;;;;;5047292;28;20248;-67
2022/03/18 05:34:03;;;;;;;24.80;13.60;;;;;;;;;;5052027;28;20234;-66
2022/03/18 05:36:31;;;;;;;25.83;12.50;;;;;;;;;;5046824;28;20265;-67
2022/03/18 05:39:00;;;;;;;26.43;14.10;;;;;;;;;;5035291;28;20258;-67
2022/03/18 05:41:28;;;;;;;25.93;13.70;;;;;;;;;;5029211;28;20282;-67
2022/03/18 05:43:56;;;;;;;23.67;13.93;;;;;;;;;;5035973;28;20287;-67
2022/03/18 05:46:25;;;;;;;20.70;13.50;;;;;;;;;;5036928;28;20250;-67
2022/03/18 05:48:53;;;;;;;22.23;13.43;;;;;;;;;;5043207;28;20259;-67
2022/03/18 05:51:21;;;;;;;23.43;13.30;;;;;;;;;;5041579;28;20243;-67
2022/03/18 05:53:49;;;;;;;21.00;12.33;;;;;;;;;;5049516;28;20653;-67
2022/03/18 05:59:05;;;;;;;22.60;12.17;;;;;;;;;;5055157;28;20222;-67
2022/03/18 06:01:37;;;;;;;21.43;12.47;;;;;;;;;;5059279;28;20628;-67
2022/03/18 06:04:05;;;;;;;25.60;13.50;;;;;;;;;;5058512;28;20205;-67
2022/03/18 06:06:34;;;;;;;21.37;12.73;;;;;;;;;;5053138;28;20251;-67
2022/03/18 06:11:51;;;;;;;24.83;12.67;;;;;;;;;;5056130;28;20230;-67
2022/03/18 06:14:20;;;;;;;19.43;12.30;;;;;;;;;;5055516;28;20205;-68
2022/03/18 06:16:50;;;;;;;22.17;13.33;;;;;;;;;;5057459;28;20225;-67
2022/03/18 06:19:19;;;;;;;20.90;12.27;;;;;;;;;;5059121;28;20223;-67
2022/03/18 06:21:47;;;;;;;23.73;13.00;;;;;;;;;;5054504;28;20200;-67
2022/03/18 06:24:16;;;;;;;21.20;11.93;;;;;;;;;;5058300;28;20195;-68
2022/03/18 06:26:44;;;;;;;20.03;12.43;;;;;;;;;;5052757;28;20250;-68
2022/03/18 06:29:12;;;;;;;22.07;12.60;;;;;;;;;;5045707;28;20235;-67
2022/03/18 06:31:40;;;;;;;18.67;12.37;;;;;;;;;;5039295;28;20235;-67
2022/03/18 06:34:10;;;;;;;25.00;12.97;;;;;;;;;;5040321;28;20199;-67
2022/03/18 06:36:39;;;;;;;19.97;12.27;;;;;;;;;;5037924;28;20254;-67
2022/03/18 06:39:07;;;;;;;23.77;12.73;;;;;;;;;;5040056;28;20345;-68
2022/03/18 06:41:36;;;;;;;21.17;13.03;;;;;;;;;;5040554;28;20200;-66
2022/03/18 06:44:04;;;;;;;20.37;11.60;;;;;;;;;;5037859;28;20574;-68
2022/03/18 06:46:32;;;;;;;20.17;11.37;;;;;;;;;;5039808;28;20266;-68
2022/03/18 06:49:00;;;;;;;21.77;12.77;;;;;;;;;;5040292;28;20203;-70
2022/03/18 06:51:30;;;;;;;20.90;12.63;;;;;;;;;;5040404;28;20249;-67
2022/03/18 06:53:58;;;;;;;23.50;12.33;;;;;;;;;;5040245;28;20230;-68
2022/03/18 06:56:27;;;;;;;19.97;12.27;;;;;;;;;;5039802;28;20259;-69
2022/03/18 06:58:55;;;;;;;18.67;11.97;;;;;;;;;;5040752;28;20262;-68
2022/03/18 07:01:23;;;;;;;18.83;12.10;;;;;;;;;;5040010;28;20234;-68
2022/03/18 07:03:52;;;;;;;22.30;12.07;;;;;;;;;;5038946;28;20195;-68
2022/03/18 07:06:20;;;;;;;19.83;11.67;;;;;;;;;;5048591;28;20253;-68
2022/03/18 07:08:49;;;;;;;22.97;12.10;;;;;;;;;;5042296;28;20247;-68
2022/03/18 07:11:17;;;;;;;18.40;11.47;;;;;;;;;;5040286;28;20214;-68
2022/03/18 07:13:46;;;;;;;18.10;11.13;;;;;;;;;;5049012;28;20231;-68
2022/03/18 07:18:59;;;;;;;17.80;11.13;;;;;;;;;;5039813;28;20593;-67
2022/03/18 07:21:28;;;;;;;20.17;11.60;;;;;;;;;;5040319;28;20235;-67
2022/03/18 07:23:57;;;;;;;21.33;10.97;;;;;;;;;;5040291;28;20218;-67
2022/03/18 07:26:25;;;;;;;19.50;12.10;;;;;;;;;;5040081;28;20266;-67
2022/03/18 07:28:53;;;;;;;19.47;11.23;;;;;;;;;;5049789;28;20231;-67
2022/03/18 07:31:21;;;;;;;21.53;11.53;;;;;;;;;;5041229;28;20239;-66
2022/03/18 07:33:51;;;;;;;19.13;11.43;;;;;;;;;;5051716;28;20218;-68
2022/03/18 07:36:19;;;;;;;18.83;11.53;;;;;;;;;;5047345;28;20397;-68
2022/03/18 07:38:47;;;;;;;17.60;11.53;;;;;;;;;;5042922;28;20215;-66
2022/03/18 07:41:17;;;;;;;18.47;11.17;;;;;;;;;;5039789;28;20239;-67
2022/03/18 07:43:45;;;;;;;23.63;12.73;;;;;;;;;;5039693;28;20239;-67
2022/03/18 07:46:13;;;;;;;20.20;11.23;;;;;;;;;;5042250;28;20270;-67
2022/03/18 07:48:43;;;;;;;17.77;11.57;;;;;;;;;;5047591;28;20292;-67
2022/03/18 07:51:11;;;;;;;20.37;11.73;;;;;;;;;;5039310;28;20287;-67
2022/03/18 07:53:39;;;;;;;18.97;10.43;;;;;;;;;;5038853;28;20648;-67
2022/03/18 07:56:07;;;;;;;20.57;11.27;;;;;;;;;;5039188;28;20259;-66
2022/03/18 07:58:36;;;;;;;20.23;11.93;;;;;;;;;;5049167;28;20210;-67
2022/03/18 08:01:05;;;;;;;22.10;11.03;;;;;;;;;;5050775;28;20314;-66
2022/03/18 08:03:33;;;;;;;19.80;11.33;;;;;;;;;;5026368;28;20562;-66
2022/03/18 08:06:02;;;;;;;18.27;11.20;;;;;;;;;;5044747;28;20250;-66
2022/03/18 08:08:30;;;;;;;17.90;11.30;;;;;;;;;;5044761;28;20295;-66
2022/03/18 08:10:59;;;;;;;20.30;11.30;;;;;;;;;;5038943;28;20597;-66
2022/03/18 08:13:27;;;;;;;19.67;10.20;;;;;;;;;;5038819;28;20738;-67
2022/03/18 08:15:56;;;;;;;19.00;10.93;;;;;;;;;;5049080;28;20254;-66
2022/03/18 08:18:25;;;;;;;20.27;10.93;;;;;;;;;;5044488;28;20208;-67
2022/03/18 08:20:53;;;;;;;17.30;10.53;;;;;;;;;;5037781;28;20223;-67
2022/03/18 08:23:23;;;;;;;17.70;11.60;;;;;;;;;;5038369;28;20207;-67
2022/03/18 08:25:51;;;;;;;17.67;10.57;;;;;;;;;;5038506;28;20259;-67
2022/03/18 08:28:19;;;;;;;16.50;9.83;;;;;;;;;;5025196;28;20647;-67
2022/03/18 08:30:47;;;;;;;17.27;10.70;;;;;;;;;;5037842;28;20281;-67
2022/03/18 08:33:16;;;;;;;22.70;11.87;;;;;;;;;;5025760;28;20299;-66
2022/03/18 08:35:44;;;;;;;15.93;11.13;;;;;;;;;;5038549;28;20272;-66
2022/03/18 08:38:12;;;;;;;16.17;10.67;;;;;;;;;;5038804;28;20283;-66
2022/03/18 08:40:40;;;;;;;17.57;10.63;;;;;;;;;;5038570;28;20258;-66
2022/03/18 08:43:09;;;;;;;17.33;10.40;;;;;;;;;;5038646;28;20231;-66
2022/03/18 08:45:38;;;;;;;21.83;11.03;;;;;;;;;;5047967;28;20231;-66
2022/03/18 08:48:07;;;;;;;19.57;11.73;;;;;;;;;;5040211;28;20234;-66
2022/03/18 08:50:36;;;;;;;18.97;11.20;;;;;;;;;;5047058;28;20257;-67
2022/03/18 08:53:09;;;;;;;17.67;11.10;;;;;;;;;;5037844;28;20605;-66
2022/03/18 08:55:39;;;;;;;16.07;10.53;;;;;;;;;;5038207;28;20710;-67
2022/03/18 08:58:08;;;;;;;22.27;12.87;;;;;;;;;;5049856;28;20210;-66
2022/03/18 09:00:36;;;;;;;19.53;10.80;;;;;;;;;;5039384;28;20266;-66
2022/03/18 09:03:05;;;;;;;21.47;10.93;;;;;;;;;;5047904;28;20212;-66
2022/03/18 09:05:34;;;;;;;15.73;10.67;;;;;;;;;;5042188;28;20215;-66
2022/03/18 09:08:03;;;;;;;19.13;11.40;;;;;;;;;;5042959;28;20235;-66
2022/03/18 09:10:34;;;;;;;22.80;12.77;;;;;;;;;;5038296;28;20235;-67
2022/03/18 09:13:08;;;;;;;16.50;9.87;;;;;;;;;;5038008;28;20234;-66
2022/03/18 09:15:36;;;;;;;18.17;10.93;;;;;;;;;;5037838;28;20265;-66
2022/03/18 09:18:04;;;;;;;24.10;11.40;;;;;;;;;;5049895;28;20239;-67
2022/03/18 09:20:32;;;;;;;18.47;11.10;;;;;;;;;;5049918;28;20313;-66
2022/03/18 09:23:00;;;;;;;19.93;11.27;;;;;;;;;;5037687;28;20263;-66
2022/03/18 09:25:29;;;;;;;20.03;11.00;;;;;;;;;;5037616;28;20250;-66
2022/03/18 09:27:58;;;;;;;16.93;10.93;;;;;;;;;;5049548;28;20234;-67
2022/03/18 09:30:47;;;;;;;16.60;10.60;;;;;;;;;;5039597;28;20227;-66
2022/03/18 09:33:15;;;;;;;21.77;10.27;;;;;;;;;;5050722;28;20203;-67
2022/03/18 09:35:44;;;;;;;18.57;11.10;;;;;;;;;;5037523;28;20263;-66
2022/03/18 09:38:12;;;;;;;20.23;10.80;;;;;;;;;;5048480;28;20262;-67
2022/03/18 09:40:42;;;;;;;17.53;10.53;;;;;;;;;;5037868;28;20299;-67
2022/03/18 09:43:32;;;;;;;18.57;10.80;;;;;;;;;;5037628;28;20221;-67
2022/03/18 09:46:01;;;;;;;16.17;10.50;;;;;;;;;;5037017;28;20737;-67
2022/03/18 09:48:49;;;;;;;16.27;10.30;;;;;;;;;;5037392;28;20207;-67
2022/03/18 09:51:17;;;;;;;18.13;11.63;;;;;;;;;;5048428;28;20230;-66
2022/03/18 09:54:03;;;;;;;21.60;10.93;;;;;;;;;;5037657;28;20207;-67
2022/03/18 09:56:33;;;;;;;19.10;10.53;;;;;;;;;;5038504;28;20303;-67
2022/03/18 09:59:01;;;;;;;15.60;10.50;;;;;;;;;;5047961;28;20294;-67
2022/03/18 10:01:29;;;;;;;18.43;10.77;;;;;;;;;;5045549;28;20295;-67
2022/03/18 10:04:02;;;;;;;18.20;10.30;;;;;;;;;;5040330;28;20214;-67
2022/03/18 10:06:32;;;;;;;19.27;11.13;;;;;;;;;;5037918;28;20235;-67
2022/03/18 10:09:01;;;;;;;20.10;11.87;;;;;;;;;;5046895;28;20231;-67
2022/03/18 10:11:30;;;;;;;18.23;11.07;;;;;;;;;;5037263;28;20200;-67
2022/03/18 10:14:01;;;;;;;21.03;10.77;;;;;;;;;;5046090;28;20260;-67
2022/03/18 10:16:33;;;;;;;18.63;11.37;;;;;;;;;;5040652;28;20262;-67
2022/03/18 10:19:02;;;;;;;15.30;10.53;;;;;;;;;;5037301;28;20215;-67
2022/03/18 10:21:30;;;;;;;19.87;10.83;;;;;;;;;;5034601;28;20220;-67
2022/03/18 10:24:08;;;;;;;21.97;12.20;;;;;;;;;;5046880;28;20239;-67
2022/03/18 10:26:37;;;;;;;19.67;11.07;;;;;;;;;;5038554;28;20231;-67
2022/03/18 10:29:11;;;;;;;19.87;11.97;;;;;;;;;;5050503;28;20235;-67
2022/03/18 10:31:45;;;;;;;19.43;11.43;;;;;;;;;;5042374;28;20282;-67
2022/03/18 10:37:08;;;;;;;18.13;10.50;;;;;;;;;;5041783;28;20251;-67
2022/03/18 10:39:37;;;;;;;17.93;10.80;;;;;;;;;;5040029;28;20216;-66
2022/03/18 10:42:12;;;;;;;18.30;11.03;;;;;;;;;;5037114;28;20231;-67
2022/03/18 10:44:51;;;;;;;19.43;10.80;;;;;;;;;;5050008;28;20547;-67
2022/03/18 10:47:29;;;;;;;24.63;10.93;;;;;;;;;;5040142;28;20247;-67
2022/03/18 10:50:14;;;;;;;23.67;11.63;;;;;;;;;;5041021;28;20203;-67
2022/03/18 10:52:59;;;;;;;20.03;11.50;;;;;;;;;;5049677;28;20194;-67
2022/03/18 10:55:29;;;;;;;19.67;10.70;;;;;;;;;;5047820;28;20262;-67
2022/03/18 10:57:59;;;;;;;18.70;11.37;;;;;;;;;;5047361;28;20206;-67
2022/03/18 11:00:30;;;;;;;16.93;11.03;;;;;;;;;;5039861;28;20725;-67
2022/03/18 11:02:59;;;;;;;17.90;11.00;;;;;;;;;;5050280;28;20647;-67
2022/03/18 11:05:32;;;;;;;15.80;10.53;;;;;;;;;;5039725;28;20223;-67
2022/03/18 11:08:01;;;;;;;17.57;10.50;;;;;;;;;;5048515;28;20679;-67
2022/03/18 11:13:18;;;;;;;17.77;11.83;;;;;;;;;;5040364;28;20299;-67
2022/03/18 11:15:49;;;;;;;18.33;11.63;;;;;;;;;;5040116;28;20318;-66
2022/03/18 11:18:19;;;;;;;17.73;10.60;;;;;;;;;;5047140;28;20291;-66
2022/03/18 11:20:50;;;;;;;15.43;10.37;;;;;;;;;;5040003;28;20235;-66
2022/03/18 11:23:18;;;;;;;19.90;11.40;;;;;;;;;;5042445;28;20660;-66
2022/03/18 11:25:48;;;;;;;19.60;10.70;;;;;;;;;;5047525;28;20637;-65
2022/03/18 11:28:17;;;;;;;17.20;10.93;;;;;;;;;;5052032;28;20237;-66
2022/03/18 11:30:47;;;;;;;18.03;11.40;;;;;;;;;;5040032;28;20239;-66
2022/03/18 11:33:20;;;;;;;19.20;10.07;;;;;;;;;;5050870;28;20294;-66
2022/03/18 11:36:04;;;;;;;20.63;11.60;;;;;;;;;;5039767;28;20250;-67
2022/03/18 11:38:47;;;;;;;19.20;11.30;;;;;;;;;;5048636;28;20290;-66
2022/03/18 11:41:15;;;;;;;17.10;11.07;;;;;;;;;;5039334;28;20237;-66
2022/03/18 11:43:49;;;;;;;19.03;10.77;;;;;;;;;;5039251;28;20726;-68
2022/03/18 11:46:25;;;;;;;21.73;10.73;;;;;;;;;;5054578;28;20265;-68
2022/03/18 11:48:55;;;;;;;16.33;10.83;;;;;;;;;;5048898;28;20265;-68
2022/03/18 11:51:24;;;;;;;20.27;11.07;;;;;;;;;;5039809;28;20290;-68
2022/03/18 11:53:53;;;;;;;17.60;10.77;;;;;;;;;;5041751;28;20234;-68
2022/03/18 11:56:22;;;;;;;18.23;11.40;;;;;;;;;;5040776;28;20730;-67
2022/03/18 11:58:50;;;;;;;17.97;10.47;;;;;;;;;;5052171;28;20239;-68
2022/03/18 12:01:37;;;;;;;25.93;10.90;;;;;;;;;;5044327;28;20659;-68
2022/03/18 12:04:07;;;;;;;15.63;10.23;;;;;;;;;;5044399;28;20223;-68
2022/03/18 12:07:01;;;;;;;22.10;10.83;;;;;;;;;;5050656;28;20250;-68
2022/03/18 12:09:47;;;;;;;21.47;11.57;;;;;;;;;;5039080;28;20208;-68
2022/03/18 12:12:15;;;;;;;20.43;11.87;;;;;;;;;;5047769;28;20195;-68
2022/03/18 12:14:44;;;;;;;17.57;10.17;;;;;;;;;;5038861;28;20211;-68
2022/03/18 12:17:12;;;;;;;16.10;10.30;;;;;;;;;;5038824;28;20255;-68
2022/03/18 12:19:53;;;;;;;21.20;10.80;;;;;;;;;;5038912;28;20663;-68
2022/03/18 12:22:22;;;;;;;22.77;10.83;;;;;;;;;;5038802;28;20223;-68
2022/03/18 12:24:51;;;;;;;16.97;11.00;;;;;;;;;;5038695;28;20243;-67
2022/03/18 12:27:20;;;;;;;23.03;10.10;;;;;;;;;;5049098;28;20261;-68
2022/03/18 12:29:48;;;;;;;16.50;10.47;;;;;;;;;;5038665;28;20738;-67
2022/03/18 12:32:17;;;;;;;21.63;10.37;;;;;;;;;;5050556;28;20227;-68
2022/03/18 12:34:48;;;;;;;22.13;11.47;;;;;;;;;;5050134;28;20230;-67
2022/03/18 12:37:20;;;;;;;17.90;10.10;;;;;;;;;;5049948;28;20258;-68
2022/03/18 12:40:00;;;;;;;17.33;10.07;;;;;;;;;;5038665;28;20208;-68
2022/03/18 12:42:28;;;;;;;19.17;10.37;;;;;;;;;;5038523;28;20259;-68
2022/03/18 12:44:59;;;;;;;19.20;10.23;;;;;;;;;;5038064;28;20286;-68
2022/03/18 12:47:30;;;;;;;24.13;9.77;;;;;;;;;;5038051;28;20239;-68
2022/03/18 12:50:00;;;;;;;14.93;9.90;;;;;;;;;;5038557;28;20218;-67
2022/03/18 12:52:29;;;;;;;17.00;9.77;;;;;;;;;;5040075;28;20200;-68
2022/03/18 12:55:06;;;;;;;16.80;10.30;;;;;;;;;;5043057;28;20252;-68
2022/03/18 12:57:35;;;;;;;19.27;10.73;;;;;;;;;;5052511;28;20285;-68
2022/03/18 13:00:04;;;;;;;23.33;10.40;;;;;;;;;;5041445;28;20235;-67
2022/03/18 13:02:52;;;;;;;19.47;9.77;;;;;;;;;;5045327;28;20226;-68
2022/03/18 13:05:20;;;;;;;16.53;10.07;;;;;;;;;;5047785;28;20232;-68
2022/03/18 13:07:50;;;;;;;20.33;10.33;;;;;;;;;;5037554;28;20203;-68
2022/03/18 13:10:22;;;;;;;19.07;10.00;;;;;;;;;;5038301;28;20207;-68
2022/03/18 13:12:50;;;;;;;17.67;9.23;;;;;;;;;;5037850;28;20607;-68
2022/03/18 13:15:19;;;;;;;17.00;9.43;;;;;;;;;;5038167;28;20231;-68
2022/03/18 13:17:48;;;;;;;22.23;10.30;;;;;;;;;;5041929;28;20203;-68
2022/03/18 13:20:24;;;;;;;25.03;10.60;;;;;;;;;;5038092;28;20231;-67
2022/03/18 13:22:54;;;;;;;16.50;9.93;;;;;;;;;;5037785;28;20230;-67
2022/03/18 13:25:22;;;;;;;19.90;10.43;;;;;;;;;;5043586;28;20317;-68
2022/03/18 13:27:51;;;;;;;17.97;9.77;;;;;;;;;;5051826;28;20742;-68
2022/03/18 13:33:07;;;;;;;19.73;9.27;;;;;;;;;;5042627;28;20226;-68
2022/03/18 13:35:42;;;;;;;20.53;10.23;;;;;;;;;;5037676;28;20227;-68
2022/03/18 13:38:16;;;;;;;20.23;10.17;;;;;;;;;;5037881;28;20239;-67
2022/03/18 13:40:53;;;;;;;13.03;8.83;;;;;;;;;;5049782;28;20663;-68
2022/03/18 13:43:24;;;;;;;19.67;9.37;;;;;;;;;;5037775;28;20713;-68
2022/03/18 13:45:52;;;;;;;19.23;9.30;;;;;;;;;;5038447;28;20661;-68
2022/03/18 13:48:27;;;;;;;19.40;10.47;;;;;;;;;;5038315;28;20217;-67
2022/03/18 13:51:06;;;;;;;16.87;8.43;;;;;;;;;;5037855;28;20258;-68
2022/03/18 13:54:08;;;;;;;16.80;9.47;;;;;;;;;;5013913;28;20196;-68
2022/03/18 13:56:38;;;;;;;20.07;9.00;;;;;;;;;;4984401;28;20263;-68
2022/03/18 13:59:09;;;;;;;18.73;9.67;;;;;;;;;;5006771;28;20350;-68
2022/03/18 14:01:37;;;;;;;16.77;9.47;;;;;;;;;;5008170;28;20248;-68
2022/03/18 14:04:06;;;;;;;24.57;10.07;;;;;;;;;;5006631;28;20224;-68
2022/03/18 14:06:48;;;;;;;17.80;9.67;;;;;;;;;;4995448;28;20494;-68
2022/03/18 14:09:38;;;;;;;16.90;9.13;;;;;;;;;;4995774;28;20208;-68
2022/03/18 14:12:12;;;;;;;19.67;9.67;;;;;;;;;;4995769;28;20686;-68
2022/03/18 14:14:41;;;;;;;18.10;10.20;;;;;;;;;;4984555;28;20212;-68
2022/03/18 14:17:10;;;;;;;14.87;9.23;;;;;;;;;;4995487;28;20279;-68
2022/03/18 14:19:48;;;;;;;23.43;9.53;;;;;;;;;;4996929;28;20286;-68
2022/03/18 14:22:29;;;;;;;13.27;8.47;;;;;;;;;;5011948;28;20235;-72
2022/03/18 14:24:59;;;;;;;22.37;10.00;;;;;;;;;;5017368;28;20235;-71
2022/03/18 14:27:51;;;;;;;21.33;10.17;;;;;;;;;;4982776;28;20208;-71
2022/03/18 14:30:21;;;;;;;14.80;9.13;;;;;;;;;;5024307;28;20207;-71
2022/03/18 14:32:50;;;;;;;19.33;10.30;;;;;;;;;;5047765;28;20218;-71
2022/03/18 14:35:41;;;;;;;34.07;24.23;;;;;;;;;;5024832;28;20342;-70
2022/03/18 14:38:10;;;;;;;22.37;13.07;;;;;;;;;;5040553;28;20204;-71
2022/03/18 14:40:39;;;;;;;18.57;11.27;;;;;;;;;;5040867;28;20291;-72
2022/03/18 14:43:07;;;;;;;20.13;10.80;;;;;;;;;;5038447;28;20258;-70
2022/03/18 14:45:36;;;;;;;19.97;10.00;;;;;;;;;;5040236;28;20259;-70
2022/03/18 14:48:05;;;;;;;20.13;9.67;;;;;;;;;;5040301;28;20227;-70
2022/03/18 14:50:38;;;;;;;20.87;10.80;;;;;;;;;;5040484;28;20231;-70
2022/03/18 14:53:07;;;;;;;19.60;9.00;;;;;;;;;;5042188;28;20202;-70
2022/03/18 14:58:23;;;;;;;28.30;11.43;;;;;;;;;;5046530;28;20234;-71
2022/03/18 15:00:51;;;;;;;17.47;10.90;;;;;;;;;;5046961;28;20238;-70
2022/03/18 15:03:20;;;;;;;21.83;9.97;;;;;;;;;;5051095;28;20234;-71
2022/03/18 15:05:48;;;;;;;20.17;10.30;;;;;;;;;;5048957;28;20223;-72
2022/03/18 15:08:18;;;;;;;19.43;10.47;;;;;;;;;;5040175;28;20658;-70